Latest Coastal Weather Observations for Cato Island

IDQ60701

Issued at 1:31 am EST Sunday 5 July 2015 (issued every 10 minutes, with the page automatically refreshed every 10 minutes)

About coastal observations | Map of coastal stations | Coastal observations for QLD | Marine services | Other Formats
Station Details ID: 200601 Name: CATO ISLAND Lat: -23.25 Lon: 155.54 Height: 6.3 m
Data from the previous 72 hours. | See also: Recent months for locations in Queensland
Date/Time
EST
Temp

°C
Wind Pressure Rain
since 9am
mm
Weather Cloud Vis
km
Sea
Height
m
Swell
Dir
 
Speed
knots
Gust
knots
hPa Trend Height
m
Period
s
Dir
05/01:30am 20.9 ESE 21 25 1019.0 - - - - - - - - -
05/01:26am 20.9 ESE 20 25 1019.0 - - - - - - - - -
05/01:00am 20.8 SSE 13 16 1019.5 - - - - - - - - -
05/12:30am 20.4 ESE 19 23 1019.9 - - - - - - - - -
05/12:06am 20.0 ESE 21 25 1019.9 - - - - - - - - -
05/12:00am 21.1 SSE 20 24 1019.9 - - - - - - - - -
 
Date/Time
EST
Temp

°C
Wind Pressure Rain
since 9am
mm
Weather Cloud Vis
km
Sea
Height
m
Swell
Dir
 
Speed
knots
Gust
knots
hPa Trend Height
m
Period
s
Dir
04/11:58pm 21.0 SSE 20 24 1019.9 - - - - - - - - -
04/11:30pm 21.3 ESE 14 17 1020.0 - - - - - - - - -
04/11:00pm 21.3 SE 17 21 1020.0 - - - - - - - - -
04/10:30pm 21.5 SE 16 19 1020.3 - - - - - - - - -
04/10:00pm 21.3 SE 15 19 1020.4 - - - - - - - - -
04/09:30pm 21.3 ESE 15 19 1020.2 - - - - - - - - -
04/09:00pm 21.4 SE 16 20 1020.1 - - - - - - - - -
04/08:30pm 21.1 SE 18 21 1020.0 - - - - - - - - -
04/08:00pm 21.4 ESE 17 20 1019.9 - - - - - - - - -
04/07:30pm 21.3 SSE 17 20 1019.6 - - - - - - - - -
04/07:00pm 21.2 SE 15 18 1019.5 - - - - - - - - -
04/06:30pm 21.3 ESE 13 16 1019.4 - - - - - - - - -
04/06:00pm 21.0 ESE 16 19 1019.2 - - - - - - - - -
04/05:30pm 21.3 ESE 16 21 1018.7 - - - - - - - - -
04/05:00pm 21.1 ESE 17 19 1018.4 - - - - - - - - -
04/04:30pm 21.2 ESE 20 24 1017.9 - - - - - - - - -
04/04:00pm 21.0 ESE 19 25 1017.7 - - - - - - - - -
04/03:30pm 21.1 ESE 19 26 1017.7 - - - - - - - - -
04/03:00pm 21.1 SE 20 26 1017.7 - - - - - - - - -
04/02:30pm 21.4 SE 21 25 1017.6 - - - - - - - - -
04/02:00pm 21.2 SE 21 25 1017.5 - - - - - - - - -
04/01:30pm 21.5 ESE 20 24 1017.5 - - - - - - - - -
04/01:00pm 21.5 SE 18 23 1017.7 - - - - - - - - -
04/12:30pm 21.5 SE 20 24 1018.1 - - - - - - - - -
04/12:00pm 21.3 SE 19 23 1018.4 - - - - - - - - -
04/11:30am 21.5 SE 22 25 1018.9 - - - - - - - - -
04/11:00am 21.2 SE 21 26 1019.3 - - - - - - - - -
04/10:30am 21.3 SE 21 25 1019.7 - - - - - - - - -
04/10:00am 21.2 SE 22 26 1019.8 - - - - - - - - -
04/09:30am 21.4 SE 22 26 1019.9 - - - - - - - - -
04/09:00am 20.9 SE 23 30 1019.7 - - - - - - - - -
04/08:30am 21.1 SE 21 27 1019.7 - - - - - - - - -
04/08:00am 21.0 SE 21 25 1019.3 - - - - - - - - -
04/07:30am 21.0 SSE 19 23 1019.0 - - - - - - - - -
04/07:00am 20.8 SE 23 26 1018.8 - - - - - - - - -
04/06:30am 20.8 SE 22 26 1018.6 - - - - - - - - -
04/06:00am 20.7 SE 22 28 1018.2 - - - - - - - - -
04/05:30am 21.0 SSE 21 25 1017.9 - - - - - - - - -
04/05:00am 21.0 SE 22 27 1018.0 - - - - - - - - -
04/04:30am 20.8 SE 20 24 1018.0 - - - - - - - - -
04/04:10am 20.9 SE 19 29 1018.0 - - - - - - - - -
04/04:00am 20.8 SE 20 23 1018.0 - - - - - - - - -
04/03:30am 20.6 SE 19 25 1018.1 - - - - - - - - -
04/03:00am 20.2 ESE 16 22 1018.3 - - - - - - - - -
04/02:33am 20.2 SE 18 30 1018.3 - - - - - - - - -
04/02:30am 20.1 SSE 16 20 1018.4 - - - - - - - - -
04/02:00am 19.4 SSE 20 26 1018.8 - - - - - - - - -
04/01:30am 20.2 SSE 26 30 1018.7 - - - - - - - - -
04/01:14am 20.6 SE 17 28 1018.8 - - - - - - - - -
04/01:00am 20.4 ESE 19 27 1019.1 - - - - - - - - -
04/12:55am 20.2 ESE 17 27 1019.2 - - - - - - - - -
04/12:30am 19.0 ESE 16 24 1019.4 - - - - - - - - -
04/12:00am 18.7 SE 23 32 1019.7 - - - - - - - - -
 
Date/Time
EST
Temp

°C
Wind Pressure Rain
since 9am
mm
Weather Cloud Vis
km
Sea
Height
m
Swell
Dir
 
Speed
knots
Gust
knots
hPa Trend Height
m
Period
s
Dir
03/11:30pm 20.6 SE 21 24 1019.4 - - - - - - - - -
03/11:10pm 18.8 SSE 15 27 1019.8 - - - - - - - - -
03/11:00pm 19.3 SE 23 28 1019.9 - - - - - - - - -
03/10:30pm 20.7 SE 26 31 1019.8 - - - - - - - - -
03/10:13pm 20.8 SSE 24 34 1019.6 - - - - - - - - -
03/10:00pm 21.3 SE 18 27 1019.7 - - - - - - - - -
03/09:30pm 21.3 SSE 20 26 1019.6 - - - - - - - - -
03/09:00pm 19.9 SSE 29 37 1019.6 - - - - - - - - -
03/08:54pm 20.8 SSE 22 33 1019.5 - - - - - - - - -
03/08:30pm 21.2 SSE 21 27 1019.3 - - - - - - - - -
03/08:08pm 20.7 SE 24 28 1019.2 - - - - - - - - -
03/08:00pm 20.5 S 22 29 1019.2 - - - - - - - - -
03/07:30pm 21.0 SSE 20 23 1019.1 - - - - - - - - -
03/07:00pm 21.3 SSE 23 28 1018.7 - - - - - - - - -
03/06:30pm 21.3 SSE 22 25 1018.3 - - - - - - - - -
03/06:00pm 21.3 SSE 24 28 1017.9 - - - - - - - - -
03/05:30pm 21.3 SSE 26 31 1017.6 - - - - - - - - -
03/05:00pm 21.2 SSE 26 31 1017.1 - - - - - - - - -
03/04:30pm 21.5 SSE 24 29 1016.7 - - - - - - - - -
03/04:00pm 21.7 SSE 23 27 1016.4 - - - - - - - - -
03/03:30pm 21.7 SSE 23 26 1016.2 - - - - - - - - -
03/03:00pm 21.9 SSE 21 26 1016.0 - - - - - - - - -
03/02:30pm 21.4 SSE 20 23 1016.1 - - - - - - - - -
03/02:00pm 21.3 SSE 19 23 1016.2 - - - - - - - - -
03/01:30pm 21.4 SSE 21 25 1016.1 - - - - - - - - -
03/01:00pm 21.3 SSE 20 24 1016.4 - - - - - - - - -
03/12:30pm 21.3 S 18 22 1016.7 - - - - - - - - -
03/12:00pm 21.1 S 18 21 1017.1 - - - - - - - - -
03/11:30am 21.0 S 18 21 1017.6 - - - - - - - - -
03/11:00am 20.9 S 19 24 1017.9 - - - - - - - - -
03/10:30am 21.2 S 18 21 1018.1 - - - - - - - - -
03/10:00am 21.4 S 15 19 1018.3 - - - - - - - - -
03/09:30am 21.1 S 15 19 1018.3 - - - - - - - - -
03/09:00am 21.2 S 11 13 1018.4 - - - - - - - - -
03/08:30am 21.0 S 11 16 1018.3 - - - - - - - - -
03/08:00am 20.8 SSW 11 15 1018.0 - - - - - - - - -
03/07:30am 20.4 SSW 12 15 1017.6 - - - - - - - - -
03/07:00am 20.0 SSW 13 17 1017.4 - - - - - - - - -
03/06:30am 20.0 SSW 12 15 1017.1 - - - - - - - - -
03/06:00am 20.0 SSW 13 17 1017.0 - - - - - - - - -
03/05:30am 20.0 SSW 13 15 1016.7 - - - - - - - - -
03/05:00am 20.1 SSW 11 14 1016.5 - - - - - - - - -
03/04:30am 20.3 SSW 11 14 1016.1 - - - - - - - - -
03/04:00am 20.3 SSW 12 16 1016.1 - - - - - - - - -
03/03:30am 20.4 S 12 14 1016.2 - - - - - - - - -
03/03:00am 20.4 SSW 10 13 1016.2 - - - - - - - - -
03/02:30am 20.3 SSW 9 11 1016.3 - - - - - - - - -
03/02:00am 20.6 SSW 9 11 1016.3 - - - - - - - - -
03/01:30am 20.7 S 9 11 1016.9 - - - - - - - - -
03/01:00am 20.9 S 10 13 1017.3 - - - - - - - - -
03/12:30am 21.0 SSW 10 12 1017.3 - - - - - - - - -
03/12:00am 21.0 S 10 13 1017.4 - - - - - - - - -
 
Date/Time
EST
Temp

°C
Wind Pressure Rain
since 9am
mm
Weather Cloud Vis
km
Sea
Height
m
Swell
Dir
 
Speed
knots
Gust
knots
hPa Trend Height
m
Period
s
Dir
02/11:30pm 21.2 S 11 13 1017.8 - - - - - - - - -
02/11:00pm 21.1 SSW 12 14 1018.1 - - - - - - - - -
02/10:30pm 21.3 S 7 9 1018.4 - - - - - - - - -
02/10:00pm 21.4 S 8 10 1018.6 - - - - - - - - -
02/09:30pm 21.3 S 7 9 1018.7 - - - - - - - - -
02/09:00pm 21.4 S 8 9 1018.7 - - - - - - - - -
02/08:30pm 21.4 S 7 9 1018.7 - - - - - - - - -
02/08:00pm 21.4 S 8 10 1018.6 - - - - - - - - -
02/07:30pm 21.4 S 8 11 1018.4 - - - - - - - - -
02/07:00pm 21.5 S 9 11 1018.3 - - - - - - - - -
02/06:30pm 21.6 S 9 12 1018.1 - - - - - - - - -
02/06:00pm 21.6 S 10 13 1017.9 - - - - - - - - -
02/05:30pm 21.6 S 9 11 1017.3 - - - - - - - - -
02/05:00pm 21.5 S 11 13 1017.2 - - - - - - - - -
02/04:30pm 21.7 S 10 13 1017.1 - - - - - - - - -
02/04:00pm 21.9 S 11 14 1017.1 - - - - - - - - -
02/03:30pm 22.2 S 10 12 1017.1 - - - - - - - - -
02/03:00pm 21.9 SSE 9 11 1016.8 - - - - - - - - -
02/02:30pm 22.2 SSE 10 12 1016.8 - - - - - - - - -
02/02:00pm 22.2 SSE 11 13 1017.0 - - - - - - - - -
02/01:30pm 22.4 SSE 11 13 1017.3 - - - - - - - - -
02/01:00pm 22.4 SSE 11 13 1017.4 - - - - - - - - -
02/12:30pm 22.2 SSE 11 13 1017.7 - - - - - - - - -
02/12:00pm 22.6 SE 11 14 1018.0 - - - - - - - - -
02/11:30am 22.4 SE 12 14 1018.5 - - - - - - - - -
02/11:00am 22.4 SE 12 14 1019.1 - - - - - - - - -
02/10:30am 22.3 SE 13 15 1019.5 - - - - - - - - -
02/10:00am 22.1 SSE 14 16 1019.9 - - - - - - - - -
02/09:30am 22.1 SSE 14 17 1020.1 - - - - - - - - -
02/09:00am 22.3 SSE 15 18 1020.0 - - - - - - - - -
02/08:30am 22.1 SSE 16 18 1019.9 - - - - - - - - -
02/08:00am 21.8 SSE 16 19 1019.6 - - - - - - - - -
02/07:30am 21.5 SSE 15 18 1019.2 - - - - - - - - -
02/07:00am 21.4 SSE 14 18 1019.0 - - - - - - - - -
02/06:30am 21.3 SSE 15 17 1018.6 - - - - - - - - -
02/06:00am 21.2 SSE 14 16 1018.4 - - - - - - - - -
02/05:30am 21.1 SSE 14 18 1018.1 - - - - - - - - -
02/05:00am 21.1 SSE 14 17 1018.1 - - - - - - - - -
02/04:30am 21.2 SSE 14 17 1017.9 - - - - - - - - -
02/04:00am 21.5 SSE 13 15 1018.2 - - - - - - - - -
02/03:30am 21.3 SSE 12 15 1018.5 - - - - - - - - -
02/03:00am 21.2 SSE 13 15 1018.4 - - - - - - - - -
02/02:30am 21.4 SSE 13 15 1018.6 - - - - - - - - -
02/02:00am 21.3 SSE 13 16 1018.8 - - - - - - - - -

Other Formats:

Comma delimited format used in spreadsheet applications
http://www.bom.gov.au/fwo/IDQ60701/IDQ60701.94394.axf

JavaScript Object Notation format (JSON) in row-major order
http://www.bom.gov.au/fwo/IDQ60701/IDQ60701.94394.json